createdAt,value
2018-12-09T00:00:32.492Z,90.10
2018-12-09T00:03:07.427Z,90.00
2018-12-09T00:05:36.335Z,89.90
2018-12-09T00:13:02.090Z,88.80
2018-12-09T00:15:37.351Z,88.10
2018-12-09T00:20:40.708Z,87.90
2018-12-09T00:25:50.760Z,88.20
2018-12-09T00:28:25.668Z,87.90
2018-12-09T00:31:00.567Z,88.00
2018-12-09T00:33:29.408Z,88.30
2018-12-09T00:35:58.107Z,87.90
2018-12-09T00:40:55.191Z,87.40
2018-12-09T00:43:30.039Z,86.70
2018-12-09T00:50:56.472Z,85.10
2018-12-09T00:53:25.158Z,84.10
2018-12-09T00:56:00.063Z,83.40
2018-12-09T00:58:30.759Z,83.00
2018-12-09T01:03:28.307Z,82.00
2018-12-09T01:05:57.867Z,81.40
2018-12-09T01:10:55.004Z,80.00
2018-12-09T01:13:29.958Z,79.70
2018-12-09T01:16:00.577Z,80.00
2018-12-09T01:20:57.928Z,79.50
2018-12-09T01:23:28.672Z,79.30
2018-12-09T01:25:57.349Z,80.00
2018-12-09T01:30:55.009Z,79.00
2018-12-09T01:33:23.740Z,78.50
2018-12-09T01:35:52.524Z,78.50
2018-12-09T01:43:24.420Z,76.80
2018-12-09T01:45:55.187Z,77.10
2018-12-09T01:50:52.609Z,77.20
2018-12-09T01:53:32.596Z,77.30
2018-12-09T01:56:01.366Z,77.00
2018-12-09T01:58:30.332Z,77.20
2018-12-09T02:08:31.976Z,76.90
2018-12-09T02:11:01.116Z,76.50
2018-12-09T02:15:58.300Z,76.50
2018-12-09T02:20:57.342Z,77.10
2018-12-09T02:23:26.048Z,77.10
2018-12-09T02:25:54.891Z,76.50
2018-12-09T02:28:24.669Z,76.10
2018-12-09T02:30:53.514Z,75.80
2018-12-09T02:35:50.727Z,75.90
2018-12-09T02:43:16.963Z,75.10
2018-12-09T02:48:26.568Z,76.00
2018-12-09T02:50:55.381Z,76.00
2018-12-09T02:53:24.340Z,76.30
2018-12-09T03:03:31.650Z,76.30
2018-12-09T03:06:00.402Z,76.40
2018-12-09T03:08:29.220Z,76.40
2018-12-09T03:11:04.408Z,76.30
2018-12-09T03:13:33.133Z,76.80
2018-12-09T03:16:01.930Z,76.40
2018-12-09T03:18:30.731Z,76.00
2018-12-09T03:20:59.535Z,76.50
2018-12-09T03:23:28.342Z,76.40
2018-12-09T03:28:25.559Z,76.70
2018-12-09T03:30:54.297Z,76.90
2018-12-09T03:33:23.020Z,76.80
2018-12-09T03:35:51.765Z,76.40
2018-12-09T03:38:20.500Z,76.40
2018-12-09T03:43:23.982Z,76.30
2018-12-09T03:48:21.200Z,78.00
2018-12-09T03:53:18.336Z,81.00
2018-12-09T03:55:47.449Z,81.60
2018-12-09T03:58:16.184Z,82.20
2018-12-09T04:00:46.036Z,82.40
2018-12-09T04:03:14.840Z,81.80
2018-12-09T04:15:44.675Z,82.00
2018-12-09T04:18:13.483Z,82.10
2018-12-09T04:25:39.138Z,81.20
2018-12-09T04:28:07.875Z,81.20
2018-12-09T04:30:36.607Z,81.20
2018-12-09T04:35:40.007Z,78.70
2018-12-09T04:38:08.741Z,77.90
2018-12-09T04:43:06.172Z,76.10
2018-12-09T04:48:05.174Z,75.70
2018-12-09T04:50:34.409Z,75.50
2018-12-09T04:55:32.379Z,75.80
2018-12-09T04:58:01.108Z,75.30
2018-12-09T05:00:41.384Z,74.70
2018-12-09T05:03:10.132Z,74.40
2018-12-09T05:13:04.294Z,73.20
2018-12-09T05:15:33.014Z,73.40
2018-12-09T05:28:04.241Z,72.80
2018-12-09T05:30:32.979Z,73.40
2018-12-09T05:33:01.751Z,72.60
2018-12-09T05:38:04.996Z,72.80
2018-12-09T05:43:03.260Z,72.40
2018-12-09T05:45:31.991Z,72.40
2018-12-09T05:50:29.116Z,72.70
2018-12-09T05:52:57.848Z,72.60
2018-12-09T05:55:32.799Z,73.20
2018-12-09T06:00:29.963Z,76.30
2018-12-09T06:02:59.616Z,77.70
2018-12-09T06:05:32.363Z,78.70
2018-12-09T06:08:01.163Z,79.30
2018-12-09T06:10:29.879Z,79.50
2018-12-09T06:12:58.619Z,79.70
2018-12-09T06:22:52.944Z,78.20
2018-12-09T06:25:21.766Z,77.50
2018-12-09T06:30:18.934Z,77.00
2018-12-09T06:35:16.167Z,76.50
2018-12-09T06:37:51.010Z,76.30
2018-12-09T06:55:26.031Z,75.20
2018-12-09T06:57:54.775Z,75.10
2018-12-09T07:00:23.588Z,74.70
2018-12-09T07:02:52.518Z,75.30
2018-12-09T07:07:55.940Z,74.60
2018-12-09T07:10:24.683Z,74.60
2018-12-09T07:20:25.878Z,73.00
2018-12-09T07:25:29.392Z,72.70
2018-12-09T07:28:04.453Z,73.00
2018-12-09T07:30:33.231Z,73.10
2018-12-09T07:33:02.000Z,72.70
2018-12-09T07:35:30.736Z,72.90
2018-12-09T07:38:00.395Z,72.80
2018-12-09T07:40:29.164Z,73.00
2018-12-09T07:42:57.916Z,72.80
2018-12-09T07:45:26.703Z,72.50
2018-12-09T07:50:25.904Z,72.30
2018-12-09T07:52:54.655Z,72.40
2018-12-09T07:57:57.899Z,72.30
2018-12-09T08:00:32.818Z,72.10
2018-12-09T08:05:35.988Z,72.40
2018-12-09T08:10:33.953Z,72.30
2018-12-09T08:18:06.553Z,72.40
2018-12-09T08:23:04.461Z,72.50
2018-12-09T08:25:33.231Z,72.60
2018-12-09T08:28:01.960Z,72.80
2018-12-09T08:30:30.726Z,72.50
2018-12-09T08:33:05.826Z,72.40
2018-12-09T08:38:03.024Z,72.40
2018-12-09T08:43:06.328Z,72.30
2018-12-09T08:45:35.116Z,72.00
2018-12-09T08:50:38.524Z,72.80
2018-12-09T08:58:11.019Z,72.80
2018-12-09T09:00:39.840Z,72.80
2018-12-09T09:03:14.719Z,73.00
2018-12-09T09:13:08.667Z,73.20
2018-12-09T09:15:37.348Z,73.90
2018-12-09T09:18:12.323Z,73.90
2018-12-09T09:23:22.008Z,73.60
2018-12-09T09:25:56.904Z,74.30
2018-12-09T09:28:25.583Z,74.20
2018-12-09T09:30:54.283Z,74.10
2018-12-09T09:33:23.023Z,74.10
2018-12-09T09:35:57.976Z,74.70
2018-12-09T09:45:58.823Z,78.70
2018-12-09T09:50:55.981Z,79.50
2018-12-09T09:53:24.820Z,80.00
2018-12-09T09:58:28.120Z,80.60
2018-12-09T10:00:56.988Z,80.60
2018-12-09T10:03:26.199Z,81.00
2018-12-09T10:05:55.016Z,82.10
2018-12-09T10:11:04.432Z,82.60
2018-12-09T10:13:39.191Z,82.70
2018-12-09T10:16:08.875Z,83.20
2018-12-09T10:21:12.013Z,83.60
2018-12-09T10:23:46.989Z,83.90
2018-12-09T10:28:44.073Z,84.00
2018-12-09T10:31:12.787Z,84.20
2018-12-09T10:33:41.580Z,84.00
2018-12-09T10:36:10.247Z,84.10
2018-12-09T10:38:38.985Z,83.80
2018-12-09T10:43:36.028Z,83.80
2018-12-09T10:46:04.777Z,84.00
2018-12-09T10:48:34.255Z,83.40
2018-12-09T10:51:03.023Z,83.20
2018-12-09T10:53:31.712Z,83.10
2018-12-09T10:58:28.777Z,85.20
2018-12-09T11:03:37.483Z,86.20
2018-12-09T11:06:12.452Z,86.90
2018-12-09T11:11:22.121Z,88.60
2018-12-09T11:13:58.240Z,88.60
2018-12-09T11:16:27.177Z,88.50
2018-12-09T11:24:00.955Z,90.00
2018-12-09T11:31:32.544Z,90.20
2018-12-09T11:34:02.048Z,90.40
2018-12-09T11:36:30.727Z,90.40
2018-12-09T11:41:34.660Z,90.70
2018-12-09T11:49:06.320Z,90.80
2018-12-09T11:51:35.110Z,90.60
2018-12-09T11:54:03.946Z,90.80
2018-12-09T11:56:38.848Z,90.80
2018-12-09T11:59:07.635Z,90.80
2018-12-09T12:01:36.384Z,90.80
2018-12-09T12:04:11.351Z,91.00
2018-12-09T12:06:40.039Z,90.90
2018-12-09T12:09:08.723Z,90.70
2018-12-09T12:16:42.565Z,90.60
2018-12-09T12:19:11.252Z,90.70
2018-12-09T12:21:39.937Z,90.70
2018-12-09T12:26:50.562Z,90.50
2018-12-09T12:29:19.250Z,90.30
2018-12-09T12:31:47.940Z,90.40
2018-12-09T12:34:16.647Z,90.30
2018-12-09T12:41:48.519Z,90.30
2018-12-09T12:46:52.824Z,90.40
2018-12-09T12:49:27.877Z,90.30
2018-12-09T12:51:56.715Z,90.20
2018-12-09T12:56:59.988Z,90.20
2018-12-09T13:01:57.118Z,89.30
2018-12-09T13:11:58.501Z,88.30
2018-12-09T13:14:27.456Z,88.30
2018-12-09T13:19:24.636Z,87.90
2018-12-09T13:24:27.994Z,87.90
2018-12-09T13:29:26.048Z,87.70
2018-12-09T13:36:57.703Z,87.80
2018-12-09T13:39:26.556Z,87.60
2018-12-09T13:41:55.367Z,87.50
2018-12-09T13:44:24.108Z,88.50
2018-12-09T13:46:59.004Z,89.30
2018-12-09T13:49:27.754Z,90.20
2018-12-09T13:51:56.452Z,90.40
2018-12-09T13:54:31.262Z,91.00
2018-12-09T13:57:00.004Z,91.60
2018-12-09T13:59:30.555Z,92.10
2018-12-09T14:04:34.120Z,90.90
2018-12-09T14:14:34.192Z,92.30
2018-12-09T14:19:43.848Z,92.30
2018-12-09T14:22:12.619Z,92.50
2018-12-09T14:24:47.455Z,92.50
2018-12-09T14:27:16.264Z,92.60
2018-12-09T14:29:44.935Z,92.50
2018-12-09T14:32:13.903Z,92.50
2018-12-09T14:34:48.807Z,92.60
2018-12-09T14:42:26.738Z,92.80
2018-12-09T14:47:36.344Z,92.70
2018-12-09T14:50:11.229Z,92.80
2018-12-09T14:52:39.912Z,92.90
2018-12-09T14:55:14.795Z,92.80
2018-12-09T14:57:44.364Z,92.80
2018-12-09T15:00:19.099Z,92.80
2018-12-09T15:02:48.588Z,92.70
2018-12-09T15:10:20.568Z,92.50
2018-12-09T15:12:49.463Z,92.50
2018-12-09T15:15:18.135Z,92.40
2018-12-09T15:17:46.896Z,92.60
2018-12-09T15:20:15.732Z,92.60
2018-12-09T15:22:50.672Z,92.60
2018-12-09T15:25:25.687Z,92.60
2018-12-09T15:27:54.410Z,92.70
2018-12-09T15:30:23.088Z,92.60
2018-12-09T15:32:52.675Z,92.50
2018-12-09T15:40:18.295Z,92.70
2018-12-09T15:42:47.020Z,92.70
2018-12-09T15:50:18.743Z,92.50
2018-12-09T15:52:53.690Z,92.60
2018-12-09T15:57:57.077Z,92.60
2018-12-09T16:03:05.531Z,92.40
2018-12-09T16:08:02.753Z,91.90
2018-12-09T16:13:00.708Z,91.40
2018-12-09T16:15:29.471Z,91.40
2018-12-09T16:20:32.876Z,91.40
2018-12-09T16:23:01.570Z,91.40
2018-12-09T16:25:30.260Z,91.40
2018-12-09T16:27:59.772Z,91.50
2018-12-09T16:30:28.615Z,91.50
2018-12-09T16:35:31.967Z,91.10
2018-12-09T16:38:00.740Z,91.20
2018-12-09T16:40:30.246Z,91.30
2018-12-09T16:43:05.165Z,91.20
2018-12-09T16:45:40.919Z,91.20
2018-12-09T16:48:09.797Z,91.30
2018-12-09T16:50:44.561Z,91.30
2018-12-09T16:53:19.466Z,91.30
2018-12-09T16:55:48.240Z,91.30
2018-12-09T16:58:23.206Z,91.20
2018-12-09T17:00:58.220Z,90.90
2018-12-09T17:05:58.120Z,90.80
2018-12-09T17:08:33.104Z,90.30
2018-12-09T17:13:36.446Z,90.30
2018-12-09T17:21:14.180Z,90.10
2018-12-09T17:23:42.868Z,90.00
2018-12-09T17:26:17.658Z,90.00
2018-12-09T17:28:52.490Z,90.00
2018-12-09T17:31:21.215Z,90.00
2018-12-09T17:33:49.920Z,89.70
2018-12-09T17:36:18.663Z,89.70
2018-12-09T17:41:28.012Z,89.20
2018-12-09T17:44:02.852Z,89.30
2018-12-09T17:51:40.731Z,88.90
2018-12-09T17:54:15.727Z,89.20
2018-12-09T17:56:45.206Z,89.30
2018-12-09T17:59:14.791Z,89.00
2018-12-09T18:06:47.019Z,89.40
2018-12-09T18:11:50.376Z,89.40
2018-12-09T18:14:19.045Z,89.70
2018-12-09T18:21:50.812Z,89.30
2018-12-09T18:24:19.544Z,89.40
2018-12-09T18:26:48.281Z,89.50
2018-12-09T18:29:17.098Z,89.50
2018-12-09T18:31:46.599Z,89.60
2018-12-09T18:34:15.496Z,89.40
2018-12-09T18:36:44.373Z,89.50
2018-12-09T18:39:13.207Z,89.30
2018-12-09T18:41:42.776Z,89.30
2018-12-09T18:46:39.925Z,89.50
2018-12-09T18:49:14.783Z,90.00
2018-12-09T18:51:49.792Z,90.00
2018-12-09T18:54:18.555Z,90.30
2018-12-09T18:56:47.370Z,90.50
2018-12-09T18:59:22.311Z,90.90
2018-12-09T19:01:51.095Z,91.20
2018-12-09T19:04:26.145Z,91.00
2018-12-09T19:06:54.856Z,90.80
2018-12-09T19:09:30.051Z,91.00
2018-12-09T19:11:58.841Z,91.40
2018-12-09T19:19:30.560Z,91.70
2018-12-09T19:21:59.249Z,91.70
2018-12-09T19:24:28.924Z,91.80
2018-12-09T19:26:57.703Z,91.40
2018-12-09T19:29:26.540Z,91.30
2018-12-09T19:31:55.304Z,90.50
2018-12-09T19:34:24.004Z,90.60
2018-12-09T19:39:22.056Z,90.00
2018-12-09T19:41:57.036Z,90.10
2018-12-09T19:49:22.623Z,90.00
2018-12-09T19:51:51.393Z,90.00
2018-12-09T19:54:21.129Z,90.10
2018-12-09T19:56:49.915Z,90.10
2018-12-09T19:59:24.805Z,90.50
2018-12-09T20:01:53.908Z,90.60
2018-12-09T20:04:22.641Z,90.40
2018-12-09T20:06:51.349Z,90.50
2018-12-09T20:09:26.294Z,90.50
2018-12-09T20:11:55.064Z,90.50
2018-12-09T20:16:58.175Z,90.70
2018-12-09T20:19:26.856Z,90.70
2018-12-09T20:21:55.548Z,90.60
2018-12-09T20:24:28.178Z,90.60
2018-12-09T20:26:56.879Z,90.60
2018-12-09T20:29:25.581Z,90.60
2018-12-09T20:31:54.351Z,90.70
2018-12-09T20:37:03.851Z,90.40
2018-12-09T20:39:32.547Z,90.30
2018-12-09T20:42:01.307Z,90.40
2018-12-09T20:44:29.996Z,90.40
2018-12-09T20:47:00.516Z,90.50
2018-12-09T20:49:29.196Z,90.50
2018-12-09T20:52:04.155Z,90.80
2018-12-09T20:54:32.894Z,90.40
2018-12-09T20:57:07.872Z,90.30
2018-12-09T20:59:42.955Z,90.00
2018-12-09T21:02:17.775Z,90.00
2018-12-09T21:04:46.473Z,90.00
2018-12-09T21:09:55.787Z,90.00
2018-12-09T21:12:27.451Z,90.00
2018-12-09T21:15:02.216Z,90.00
2018-12-09T21:17:37.308Z,90.00
2018-12-09T21:22:35.268Z,90.00
2018-12-09T21:25:04.373Z,90.50
2018-12-09T21:27:39.373Z,90.40
2018-12-09T21:30:09.134Z,90.40
2018-12-09T21:32:37.952Z,90.30
2018-12-09T21:35:07.469Z,90.50
2018-12-09T21:37:36.183Z,90.60
2018-12-09T21:40:11.120Z,90.50
2018-12-09T21:42:39.833Z,90.50
2018-12-09T21:45:08.719Z,90.20
2018-12-09T21:47:37.400Z,90.10
2018-12-09T21:50:06.889Z,90.00
2018-12-09T21:52:35.583Z,90.00
2018-12-09T21:57:38.933Z,89.80
2018-12-09T22:00:09.243Z,89.70
2018-12-09T22:02:37.939Z,89.70
2018-12-09T22:07:42.180Z,90.30
2018-12-09T22:10:11.024Z,90.20
2018-12-09T22:15:08.384Z,90.50
2018-12-09T22:17:37.119Z,90.40
2018-12-09T22:22:35.126Z,90.50
2018-12-09T22:25:04.066Z,90.30
2018-12-09T22:30:01.143Z,90.50
2018-12-09T22:32:29.837Z,90.40
2018-12-09T22:34:58.536Z,90.30
2018-12-09T22:40:02.095Z,90.30
2018-12-09T22:42:30.739Z,90.40
2018-12-09T22:45:00.237Z,91.50
2018-12-09T22:47:35.190Z,90.40
2018-12-09T22:50:04.073Z,90.50
2018-12-09T22:52:32.835Z,90.40
2018-12-09T22:55:01.532Z,90.10
2018-12-09T22:57:30.234Z,90.00
2018-12-09T22:59:58.995Z,90.00
2018-12-09T23:02:39.335Z,89.50
2018-12-09T23:05:08.134Z,89.10
2018-12-09T23:07:48.567Z,88.70
2018-12-09T23:10:17.361Z,88.90
2018-12-09T23:12:46.216Z,88.20
2018-12-09T23:15:21.095Z,88.90
2018-12-09T23:22:51.885Z,88.50
2018-12-09T23:25:20.605Z,88.50
2018-12-09T23:27:55.720Z,89.20
2018-12-09T23:30:24.492Z,88.70
2018-12-09T23:35:27.792Z,88.90
2018-12-09T23:37:56.493Z,89.00
2018-12-09T23:45:28.275Z,90.30
2018-12-09T23:48:03.497Z,90.40
2018-12-09T23:50:32.135Z,90.50
2018-12-09T23:55:30.119Z,90.90
2018-12-09T23:57:58.892Z,91.40
